VIP Ground Handling & Aviation Services

 

 
Airport

NEA ANCHIALOS (VOL)

Ground Handling Services – VOL/LGBL

VIP Ground Handling

State Ground Handling

Military Ground Handling

Slot & PPR Coordination

Fuel Arrangements

Crew Accommodation Arrangements

Crew Transportation

Customs & Immigration Assistance

Executive Terminal Services

Crew Lounge

Flight Planning, Weather Briefing and NOTAMs

Catering Arrangements

Security Services

Aircraft Maintenance

Airport Customs & Immigration

Concierge Services

VIP Meet & Greet

Helicopter Transfers

Chauffeur Services

Aircraft Charter

Yacht Charter

Hire & Rental

Entertainment & Hospitality

Health & Beauty

Delivery Services

Conference & Meeting rooms

Nea Anchialos Airport, Almyros 374 00

+30 210 35 33 331 (24/7)

+30 694 6200 300 (24/7)

greece@alphajetservices.com

Nea Anchialos Airport
Airport Type
•Joint
Operating Hours
•Check NOTAMS / Contact Us
Fuel Available
•JET A1
Fire Category
•7
Approaches
•ILS / DME VOR
Available data for LGBL from the past 2 hours
NEA ANCHIALOS
Metar
LGBL 260950Z 10006KT CAVOK 33/14 Q1015

09:50 UTC

Wind: 100° 6kt

Visibility:

Sky:

Temp: 33 deg C / 91.4 deg F

Dewpoint: 14 deg C / 57.2 deg F

Pressure: 1015 hPa

TAF
TAF LGBL 260800Z 2609/2618 11012KT 9999 FEW030